Time;durP1;ratioP1;P1;durP2;ratioP2;P2;SDS_P1;SDS_P2;PMS_P1;PMS_P2;Temp;Humidity;BMP_temperature;BMP_pressure;BME280_temperature;BME280_humidity;BME280_pressure;Samples;Min_cycle;Max_cycle;Signal;HPM_P1;HPM_P2
2022/05/28 00:01:38;;;;;;;7.93;1.20;;;10.50;99.90;;;;;;5042984;28;20114;-66
2022/05/28 00:04:08;;;;;;;11.55;1.70;;;10.50;99.90;;;;;;5075323;28;20123;-68
2022/05/28 00:06:35;;;;;;;5.07;1.35;;;10.50;99.90;;;;;;5046342;28;20421;-67
2022/05/28 00:09:02;;;;;;;7.38;1.50;;;10.50;99.90;;;;;;5029719;28;20473;-66
2022/05/28 00:11:32;;;;;;;8.10;1.42;;;10.50;99.90;;;;;;5062111;28;20087;-66
2022/05/28 00:13:58;;;;;;;9.32;1.60;;;10.40;99.90;;;;;;5038133;28;20489;-66
2022/05/28 00:16:30;;;;;;;10.10;1.48;;;10.40;99.90;;;;;;5030780;28;20088;-67
2022/05/28 00:18:56;;;;;;;7.97;1.48;;;10.30;99.90;;;;;;5055637;28;20044;-66
2022/05/28 00:21:24;;;;;;;6.82;1.45;;;10.30;99.90;;;;;;5053007;28;20060;-66
2022/05/28 00:23:50;;;;;;;10.23;1.45;;;10.30;99.90;;;;;;5050043;28;20048;-66
2022/05/28 00:26:16;;;;;;;9.63;1.52;;;10.20;99.90;;;;;;5032986;28;20059;-67
2022/05/28 00:28:43;;;;;;;7.32;1.52;;;10.20;99.90;;;;;;5055463;28;20486;-66
2022/05/28 00:31:09;;;;;;;6.07;1.70;;;10.20;99.90;;;;;;5036559;28;20549;-67
2022/05/28 00:33:36;;;;;;;8.98;1.40;;;10.10;99.90;;;;;;5035906;28;20128;-66
2022/05/28 00:36:08;;;;;;;11.90;2.38;;;10.10;99.90;;;;;;5059289;28;20083;-66
2022/05/28 00:38:35;;;;;;;3.90;1.20;;;10.10;99.90;;;;;;5066505;28;20048;-66
2022/05/28 00:41:01;;;;;;;6.93;1.40;;;10.00;99.90;;;;;;5030000;28;20509;-67
2022/05/28 00:43:29;;;;;;;7.88;1.58;;;10.00;99.90;;;;;;5046400;28;20049;-66
2022/05/28 00:46:07;;;;;;;8.73;1.40;;;9.90;99.90;;;;;;5048164;28;20696;-67
2022/05/28 00:48:37;;;;;;;6.53;1.50;;;9.90;99.90;;;;;;5033464;28;20052;-66
2022/05/28 00:51:11;;;;;;;5.85;1.20;;;9.80;99.90;;;;;;5043233;28;20048;-66
2022/05/28 00:53:37;;;;;;;8.10;1.30;;;9.80;99.90;;;;;;5060359;28;20401;-67
2022/05/28 00:56:05;;;;;;;7.85;1.40;;;9.80;99.90;;;;;;5029077;28;20060;-66
2022/05/28 00:58:32;;;;;;;8.70;1.58;;;9.80;99.90;;;;;;5028692;28;20067;-66
2022/05/28 01:01:00;;;;;;;11.23;1.50;;;9.70;99.90;;;;;;5046365;28;20052;-68
2022/05/28 01:03:38;;;;;;;7.10;1.40;;;9.70;99.90;;;;;;5043961;28;20426;-66
2022/05/28 01:06:17;;;;;;;9.88;1.65;;;9.70;99.90;;;;;;5046467;28;20124;-66
2022/05/28 01:08:55;;;;;;;7.72;1.30;;;9.60;99.90;;;;;;5046281;28;20048;-66
2022/05/28 01:11:37;;;;;;;8.85;1.75;;;9.70;99.90;;;;;;5047919;28;20051;-66
2022/05/28 01:14:32;;;;;;;9.45;1.70;;;9.60;99.90;;;;;;5044543;28;20049;-66
2022/05/28 01:17:06;;;;;;;10.38;1.73;;;9.60;99.90;;;;;;5021771;28;20057;-67
2022/05/28 01:19:46;;;;;;;10.45;1.60;;;9.70;99.90;;;;;;5050016;28;20084;-67
2022/05/28 01:22:34;;;;;;;12.82;1.80;;;9.70;99.90;;;;;;5050846;28;20055;-67
2022/05/28 01:25:06;;;;;;;9.63;1.83;;;9.70;99.90;;;;;;5050686;28;20604;-67
2022/05/28 01:27:38;;;;;;;15.40;2.03;;;9.60;99.90;;;;;;5051008;28;20045;-66
2022/05/28 01:30:11;;;;;;;8.75;1.48;;;9.60;99.90;;;;;;5049229;28;20394;-68
2022/05/28 01:32:38;;;;;;;8.77;1.52;;;9.70;99.90;;;;;;5036593;28;20057;-67
2022/05/28 01:35:09;;;;;;;5.85;1.40;;;9.70;99.90;;;;;;5051759;28;20405;-68
2022/05/28 01:37:36;;;;;;;12.90;1.80;;;9.70;99.90;;;;;;5034221;28;20053;-66
2022/05/28 01:40:06;;;;;;;10.93;1.60;;;9.70;99.90;;;;;;5050622;28;20045;-66
2022/05/28 01:42:33;;;;;;;9.75;1.73;;;9.70;99.90;;;;;;5050847;28;20045;-65
2022/05/28 01:45:01;;;;;;;11.65;1.73;;;9.70;99.90;;;;;;5032502;28;20037;-67
2022/05/28 01:47:28;;;;;;;10.50;1.77;;;9.70;99.90;;;;;;5066144;28;20079;-66
2022/05/28 01:49:55;;;;;;;12.85;1.80;;;9.70;99.90;;;;;;5050737;28;20045;-66
2022/05/28 01:52:22;;;;;;;10.85;1.80;;;9.60;99.90;;;;;;5050656;28;20076;-67
2022/05/28 01:54:49;;;;;;;12.38;1.63;;;9.60;99.90;;;;;;5028335;28;20033;-67
2022/05/28 01:57:15;;;;;;;9.82;1.60;;;9.60;99.90;;;;;;5030232;28;20041;-67
2022/05/28 01:59:43;;;;;;;12.73;1.90;;;9.60;99.90;;;;;;5049375;28;20045;-66
2022/05/28 02:02:12;;;;;;;9.82;1.73;;;9.60;99.90;;;;;;5051551;28;20036;-67
2022/05/28 02:04:40;;;;;;;9.45;1.85;;;9.70;99.90;;;;;;5049632;28;20128;-66
2022/05/28 02:07:06;;;;;;;8.40;1.73;;;9.70;99.90;;;;;;5046137;28;20513;-67
2022/05/28 02:09:36;;;;;;;11.18;1.55;;;9.70;99.90;;;;;;5047666;28;20481;-66
2022/05/28 02:12:14;;;;;;;12.68;2.20;;;9.80;99.90;;;;;;5049879;28;20037;-67
2022/05/28 02:14:49;;;;;;;11.65;1.80;;;9.90;99.90;;;;;;5045982;28;20044;-69
2022/05/28 02:17:23;;;;;;;9.05;1.70;;;9.90;99.90;;;;;;5025823;28;20603;-66
2022/05/28 02:19:49;;;;;;;13.00;1.98;;;9.80;99.90;;;;;;5047624;28;20505;-66
2022/05/28 02:22:34;;;;;;;11.02;2.08;;;9.80;99.90;;;;;;5050740;28;20132;-66
2022/05/28 02:25:06;;;;;;;11.45;1.55;;;9.80;99.90;;;;;;5032228;28;20088;-66
2022/05/28 02:27:33;;;;;;;7.72;1.77;;;9.70;99.90;;;;;;5040177;28;20053;-67
2022/05/28 02:30:02;;;;;;;15.60;2.63;;;9.70;99.90;;;;;;5033833;28;20059;-69
2022/05/28 02:32:28;;;;;;;12.27;1.77;;;9.70;99.90;;;;;;5042178;28;20124;-67
2022/05/28 02:34:54;;;;;;;13.63;2.10;;;9.70;99.90;;;;;;5049818;28;20186;-66
2022/05/28 02:37:23;;;;;;;11.95;2.15;;;9.70;99.90;;;;;;5049429;28;20532;-66
2022/05/28 02:39:50;;;;;;;7.63;2.00;;;9.70;99.90;;;;;;5046549;28;20063;-66
2022/05/28 02:42:15;;;;;;;12.25;1.92;;;9.60;99.90;;;;;;5049883;28;20183;-66
2022/05/28 02:44:41;;;;;;;11.57;2.20;;;9.70;99.90;;;;;;5049649;28;20128;-66
2022/05/28 02:47:07;;;;;;;9.27;2.00;;;9.70;99.90;;;;;;5042486;28;20060;-66
2022/05/28 02:49:34;;;;;;;9.55;2.00;;;9.80;99.90;;;;;;5029564;28;20045;-65
2022/05/28 02:52:01;;;;;;;13.57;2.20;;;9.70;99.90;;;;;;5042431;28;20056;-68
2022/05/28 02:54:28;;;;;;;10.93;1.80;;;9.70;99.90;;;;;;5042443;28;20068;-66
2022/05/28 02:56:54;;;;;;;13.90;2.20;;;9.60;99.90;;;;;;5043668;28;20045;-67
2022/05/28 02:59:20;;;;;;;13.02;2.38;;;9.60;99.90;;;;;;5025379;28;20053;-66
2022/05/28 03:01:47;;;;;;;5.65;1.80;;;9.50;99.90;;;;;;5026524;28;20049;-66
2022/05/28 03:04:12;;;;;;;10.45;1.75;;;9.50;99.90;;;;;;5026178;28;20049;-67
2022/05/28 03:06:38;;;;;;;14.35;2.50;;;9.50;99.90;;;;;;5045747;28;20045;-67
2022/05/28 03:09:08;;;;;;;11.07;2.25;;;9.40;99.90;;;;;;5046539;28;20394;-66
2022/05/28 03:11:36;;;;;;;12.18;2.30;;;9.40;99.90;;;;;;5049110;28;20525;-67
2022/05/28 03:14:02;;;;;;;15.23;2.58;;;9.30;99.90;;;;;;5050762;28;20052;-69
2022/05/28 03:16:28;;;;;;;9.85;1.65;;;9.40;99.90;;;;;;5012073;28;20041;-67
2022/05/28 03:18:54;;;;;;;7.97;2.13;;;9.30;99.90;;;;;;5041243;28;20041;-66
2022/05/28 03:21:20;;;;;;;11.32;2.15;;;9.30;99.90;;;;;;5042393;28;20057;-67
2022/05/28 03:23:47;;;;;;;12.65;2.20;;;9.30;99.90;;;;;;5031356;28;20052;-66
2022/05/28 03:26:21;;;;;;;13.38;2.08;;;9.30;99.90;;;;;;5053245;28;20138;-66
2022/05/28 03:28:49;;;;;;;11.60;2.05;;;9.30;99.90;;;;;;5036514;28;20170;-66
2022/05/28 03:31:15;;;;;;;11.20;1.90;;;9.30;99.90;;;;;;5051570;28;20063;-66
2022/05/28 03:33:41;;;;;;;19.70;2.70;;;9.30;99.90;;;;;;5036177;28;20076;-67
2022/05/28 03:36:07;;;;;;;13.77;3.03;;;9.30;99.90;;;;;;5053392;28;20098;-68
2022/05/28 03:38:34;;;;;;;10.70;2.22;;;9.30;99.90;;;;;;5052352;28;20045;-67
2022/05/28 03:41:00;;;;;;;11.50;2.30;;;9.30;99.90;;;;;;5052645;28;20053;-66
2022/05/28 03:43:27;;;;;;;15.77;2.05;;;9.30;99.90;;;;;;5052756;28;20053;-66
2022/05/28 03:45:53;;;;;;;12.40;2.78;;;9.50;99.90;;;;;;5040263;28;20461;-67
2022/05/28 03:48:19;;;;;;;11.90;2.40;;;9.30;99.90;;;;;;5035439;28;20063;-67
2022/05/28 03:50:45;;;;;;;11.43;2.40;;;9.30;99.90;;;;;;5035981;28;20397;-66
2022/05/28 03:53:12;;;;;;;7.82;2.00;;;9.30;99.90;;;;;;5052752;28;20051;-67
2022/05/28 03:55:39;;;;;;;12.98;2.30;;;9.40;99.90;;;;;;5019562;28;20445;-67
2022/05/28 03:58:06;;;;;;;12.55;2.20;;;9.40;99.90;;;;;;5045167;28;20180;-66
2022/05/28 04:00:33;;;;;;;10.40;2.33;;;9.50;99.90;;;;;;5078105;28;20122;-66
2022/05/28 04:02:59;;;;;;;11.43;2.35;;;9.50;99.90;;;;;;5046334;28;20076;-70
2022/05/28 04:05:25;;;;;;;10.75;2.35;;;9.60;99.90;;;;;;5047376;28;20045;-68
2022/05/28 04:07:51;;;;;;;19.13;2.53;;;9.70;99.90;;;;;;5046859;28;20053;-66
2022/05/28 04:10:17;;;;;;;13.35;2.30;;;9.70;99.90;;;;;;5060319;28;20610;-68
2022/05/28 04:12:44;;;;;;;8.65;2.25;;;9.80;99.90;;;;;;5062607;28;20063;-68
2022/05/28 04:15:11;;;;;;;14.38;2.17;;;9.90;99.90;;;;;;5045660;28;20041;-67
2022/05/28 04:17:38;;;;;;;16.50;2.38;;;9.90;99.90;;;;;;5033288;28;20067;-66
2022/05/28 04:20:06;;;;;;;9.60;2.10;;;10.00;99.90;;;;;;5049841;28;20168;-67
2022/05/28 04:22:32;;;;;;;15.52;2.40;;;10.10;99.90;;;;;;5035161;28;20048;-66
2022/05/28 04:24:58;;;;;;;15.05;2.38;;;10.20;99.90;;;;;;5042683;28;20056;-67
2022/05/28 04:27:24;;;;;;;11.30;2.80;;;10.20;99.90;;;;;;5028712;28;20045;-67
2022/05/28 04:29:50;;;;;;;10.52;2.30;;;10.30;99.90;;;;;;5074472;28;20044;-66
2022/05/28 04:32:16;;;;;;;12.60;2.55;;;10.40;99.90;;;;;;5011211;28;20053;-66
2022/05/28 04:34:42;;;;;;;13.32;1.95;;;10.40;99.90;;;;;;5044384;28;20063;-66
2022/05/28 04:37:08;;;;;;;16.13;2.30;;;10.50;99.90;;;;;;5046381;28;20049;-67
2022/05/28 04:39:35;;;;;;;12.57;2.42;;;10.50;99.90;;;;;;5045036;28;20729;-66
2022/05/28 04:42:01;;;;;;;9.82;2.28;;;10.50;99.90;;;;;;5043551;28;20037;-66
2022/05/28 04:44:27;;;;;;;13.52;2.20;;;10.60;99.90;;;;;;5028888;28;20048;-68
2022/05/28 04:46:53;;;;;;;14.02;2.47;;;10.50;99.90;;;;;;5042985;28;20143;-68
2022/05/28 04:49:19;;;;;;;11.90;1.80;;;10.40;99.90;;;;;;5045035;28;20045;-68
2022/05/28 04:51:45;;;;;;;9.27;1.77;;;10.40;99.90;;;;;;5043786;28;20744;-67
2022/05/28 04:54:11;;;;;;;6.22;1.45;;;10.30;99.90;;;;;;5050283;28;20037;-66
2022/05/28 04:56:37;;;;;;;7.43;2.00;;;10.30;99.90;;;;;;5051220;28;20494;-66
2022/05/28 04:59:03;;;;;;;9.77;2.17;;;10.30;99.90;;;;;;5046719;28;20037;-66
2022/05/28 05:01:30;;;;;;;9.07;2.10;;;10.40;99.90;;;;;;5043758;28;20045;-68
2022/05/28 05:03:56;;;;;;;8.35;1.90;;;10.50;99.90;;;;;;5045326;28;20717;-66
2022/05/28 05:06:22;;;;;;;11.15;2.58;;;10.50;99.90;;;;;;5045643;28;20093;-66
2022/05/28 05:08:48;;;;;;;10.95;1.90;;;10.50;99.90;;;;;;5046439;28;20048;-67
2022/05/28 05:11:16;;;;;;;10.27;1.92;;;10.60;99.90;;;;;;5045056;28;20427;-67
2022/05/28 05:13:42;;;;;;;12.05;2.40;;;10.60;99.90;;;;;;5044491;28;20041;-67
2022/05/28 05:16:14;;;;;;;11.18;2.75;;;10.70;99.90;;;;;;5027644;28;20041;-67
2022/05/28 05:18:40;;;;;;;10.40;2.58;;;10.80;99.90;;;;;;5043943;28;20053;-66
2022/05/28 05:21:07;;;;;;;14.27;2.40;;;11.00;99.90;;;;;;5027947;28;20045;-67
2022/05/28 05:23:34;;;;;;;13.63;2.53;;;11.10;99.90;;;;;;5050326;28;20045;-66
2022/05/28 05:26:00;;;;;;;15.73;2.78;;;11.30;99.90;;;;;;5084487;28;20378;-67
2022/05/28 05:28:26;;;;;;;13.40;2.78;;;11.40;99.90;;;;;;5051637;28;20048;-68
2022/05/28 05:30:52;;;;;;;13.07;2.25;;;11.50;99.90;;;;;;5034622;28;20128;-67
2022/05/28 05:33:18;;;;;;;11.65;2.45;;;11.50;99.90;;;;;;5027491;28;20053;-66
2022/05/28 05:35:45;;;;;;;12.73;2.60;;;11.50;99.90;;;;;;5034821;28;20052;-66
2022/05/28 05:38:11;;;;;;;15.35;2.47;;;11.50;99.90;;;;;;5034543;28;20189;-66
2022/05/28 05:40:38;;;;;;;18.63;3.33;;;11.60;99.90;;;;;;5050719;28;20041;-67
2022/05/28 05:43:05;;;;;;;19.83;3.10;;;11.70;99.90;;;;;;5047488;28;20076;-66
2022/05/28 05:45:31;;;;;;;15.98;3.03;;;11.80;99.90;;;;;;5024669;28;20111;-67
2022/05/28 05:47:57;;;;;;;19.13;3.20;;;11.90;99.90;;;;;;5050378;28;20057;-67
2022/05/28 05:50:23;;;;;;;14.27;2.60;;;12.00;99.90;;;;;;5050441;28;20434;-67
2022/05/28 05:52:49;;;;;;;11.45;2.63;;;12.00;99.90;;;;;;5049568;28;20171;-67
2022/05/28 05:55:16;;;;;;;16.58;3.25;;;12.20;99.90;;;;;;5073130;28;20049;-68
2022/05/28 05:57:42;;;;;;;14.50;2.75;;;12.20;99.90;;;;;;5042371;28;20042;-69
2022/05/28 06:00:09;;;;;;;11.13;2.28;;;12.20;99.90;;;;;;5043639;28;20049;-67
2022/05/28 06:02:35;;;;;;;10.45;2.50;;;12.30;99.90;;;;;;5039675;28;20044;-68
2022/05/28 06:05:01;;;;;;;15.25;2.50;;;12.20;99.90;;;;;;5043533;28;20056;-68
2022/05/28 06:07:27;;;;;;;17.20;3.35;;;12.00;99.90;;;;;;5043466;28;20037;-67
2022/05/28 06:09:53;;;;;;;15.43;2.60;;;12.00;99.90;;;;;;5024310;28;21209;-68
2022/05/28 06:12:19;;;;;;;9.35;2.28;;;12.00;99.90;;;;;;5027858;28;20520;-67
2022/05/28 06:14:45;;;;;;;12.65;2.17;;;12.20;99.90;;;;;;5041169;28;20040;-70
2022/05/28 06:17:11;;;;;;;12.23;2.30;;;12.30;99.90;;;;;;5042855;28;20132;-67
2022/05/28 06:19:37;;;;;;;15.68;2.50;;;12.40;99.90;;;;;;5027833;28;20060;-66
2022/05/28 06:22:04;;;;;;;12.32;2.67;;;12.50;99.90;;;;;;5026501;28;20485;-66
2022/05/28 06:24:29;;;;;;;12.48;2.28;;;12.50;99.90;;;;;;5042534;28;20135;-68
2022/05/28 06:27:00;;;;;;;10.80;2.45;;;12.60;99.90;;;;;;5050410;28;20442;-68
2022/05/28 06:29:28;;;;;;;17.73;2.60;;;12.80;99.90;;;;;;5043711;28;20075;-67
2022/05/28 06:31:54;;;;;;;11.73;2.58;;;12.90;99.90;;;;;;5044274;28;20079;-66
2022/05/28 06:34:20;;;;;;;13.07;1.98;;;13.00;99.90;;;;;;5026951;28;20120;-66
2022/05/28 06:36:45;;;;;;;13.38;2.35;;;13.10;99.90;;;;;;5040001;28;20136;-67
2022/05/28 06:39:12;;;;;;;13.45;2.72;;;13.20;99.90;;;;;;5011271;28;20080;-67
2022/05/28 06:41:38;;;;;;;13.30;2.53;;;13.10;99.90;;;;;;5042202;28;20449;-66
2022/05/28 06:44:04;;;;;;;13.35;2.10;;;13.10;99.90;;;;;;5026072;28;20045;-67
2022/05/28 06:46:31;;;;;;;11.65;2.33;;;13.20;99.90;;;;;;5026993;28;20542;-67
2022/05/28 06:48:57;;;;;;;14.00;2.55;;;13.60;99.90;;;;;;5026922;28;20489;-67
2022/05/28 06:51:22;;;;;;;13.45;2.15;;;14.00;99.90;;;;;;5025826;28;20045;-66
2022/05/28 06:53:50;;;;;;;12.27;2.40;;;14.30;99.90;;;;;;5043538;28;20071;-69
2022/05/28 06:56:17;;;;;;;9.90;2.08;;;14.30;99.90;;;;;;5044215;28;20088;-67
2022/05/28 06:58:46;;;;;;;12.88;2.53;;;14.00;99.90;;;;;;5074614;28;20077;-66
2022/05/28 07:01:14;;;;;;;10.73;2.55;;;13.70;99.90;;;;;;5063759;28;20059;-66
2022/05/28 07:03:42;;;;;;;14.73;2.53;;;13.80;99.90;;;;;;5046927;28;20382;-66
2022/05/28 07:06:09;;;;;;;10.18;2.40;;;13.80;99.90;;;;;;5030325;28;20136;-67
2022/05/28 07:08:35;;;;;;;13.15;2.33;;;13.90;99.90;;;;;;5049057;28;20052;-68
2022/05/28 07:11:05;;;;;;;11.07;2.40;;;14.10;99.90;;;;;;5047280;28;20040;-66
2022/05/28 07:13:31;;;;;;;12.15;2.42;;;14.50;99.90;;;;;;5030614;28;20048;-67
2022/05/28 07:15:57;;;;;;;13.73;3.03;;;14.40;99.90;;;;;;5047262;28;20037;-67
2022/05/28 07:18:23;;;;;;;9.90;2.00;;;14.20;99.90;;;;;;5046536;28;20057;-68
2022/05/28 07:20:49;;;;;;;10.55;2.17;;;14.40;99.90;;;;;;5062644;28;20045;-69
2022/05/28 07:23:18;;;;;;;12.07;2.10;;;14.30;99.90;;;;;;5049186;28;20390;-67
2022/05/28 07:25:45;;;;;;;13.05;2.35;;;14.40;99.90;;;;;;5053206;28;20452;-68
2022/05/28 07:28:28;;;;;;;15.68;2.20;;;14.50;99.90;;;;;;5036586;28;20123;-70
2022/05/28 07:31:15;;;;;;;14.32;2.35;;;14.40;99.90;;;;;;5051241;28;20049;-67
2022/05/28 07:33:44;;;;;;;11.23;2.13;;;14.30;99.90;;;;;;5052831;28;20409;-67
2022/05/28 07:36:14;;;;;;;10.77;2.30;;;14.00;99.90;;;;;;5053396;28;20048;-68
2022/05/28 07:38:41;;;;;;;10.30;2.50;;;13.80;99.90;;;;;;5052353;28;20302;-68
2022/05/28 07:41:12;;;;;;;12.77;2.10;;;13.70;99.90;;;;;;5053064;28;20055;-69
2022/05/28 07:43:39;;;;;;;14.20;2.60;;;13.70;99.90;;;;;;5057063;28;20438;-68
2022/05/28 07:46:14;;;;;;;12.90;2.67;;;13.80;99.90;;;;;;5051930;28;20154;-68
2022/05/28 07:48:40;;;;;;;10.00;2.20;;;14.10;99.90;;;;;;5036131;28;20060;-69
2022/05/28 07:51:06;;;;;;;14.05;2.08;;;14.10;99.90;;;;;;5035772;28;20041;-67
2022/05/28 07:53:32;;;;;;;10.85;2.00;;;14.10;99.90;;;;;;5054907;28;20043;-67
2022/05/28 07:56:01;;;;;;;9.02;1.70;;;14.00;99.90;;;;;;5057436;28;20048;-68
2022/05/28 07:58:27;;;;;;;13.32;2.67;;;14.20;99.90;;;;;;5057831;28;20044;-68
2022/05/28 08:00:53;;;;;;;11.80;1.95;;;14.60;99.90;;;;;;5048972;28;20136;-67
2022/05/28 08:03:19;;;;;;;8.50;2.10;;;14.90;99.90;;;;;;5045899;28;20206;-68
2022/05/28 08:05:47;;;;;;;8.77;1.63;;;15.20;99.90;;;;;;5050679;28;20037;-67
2022/05/28 08:08:14;;;;;;;9.68;1.90;;;15.20;99.90;;;;;;5045652;28;20049;-69
2022/05/28 08:10:40;;;;;;;12.80;2.47;;;14.90;99.90;;;;;;5080428;28;20057;-70
2022/05/28 08:13:09;;;;;;;13.05;2.13;;;14.70;99.90;;;;;;5030353;28;20556;-67
2022/05/28 08:15:37;;;;;;;11.13;1.70;;;14.50;99.90;;;;;;5048923;28;20115;-67
2022/05/28 08:18:04;;;;;;;12.00;2.65;;;14.40;99.90;;;;;;5036527;28;20063;-67
2022/05/28 08:23:18;;;;;;;9.43;1.80;;;14.30;99.90;;;;;;5048990;28;20048;-68
2022/05/28 08:25:45;;;;;;;10.88;2.00;;;14.60;99.90;;;;;;5052006;28;20134;-67
2022/05/28 08:28:13;;;;;;;10.35;1.90;;;15.00;99.90;;;;;;5084082;28;20045;-69
2022/05/28 08:30:39;;;;;;;11.48;1.90;;;15.10;99.90;;;;;;5047767;28;20052;-68
2022/05/28 08:33:07;;;;;;;13.93;2.33;;;15.20;99.90;;;;;;5085234;28;20516;-69
2022/05/28 08:35:34;;;;;;;8.00;2.40;;;15.00;99.90;;;;;;5052708;28;20214;-69
2022/05/28 08:38:04;;;;;;;8.98;1.95;;;14.90;99.90;;;;;;5052088;28;20049;-71
2022/05/28 08:40:45;;;;;;;8.23;2.00;;;15.00;99.90;;;;;;5051553;28;20497;-68
2022/05/28 08:43:14;;;;;;;11.10;2.00;;;15.10;99.90;;;;;;5063134;28;20043;-68
2022/05/28 08:45:41;;;;;;;11.57;2.08;;;15.40;99.90;;;;;;5085554;28;20049;-68
2022/05/28 08:48:06;;;;;;;10.00;2.03;;;15.40;99.90;;;;;;5081979;28;20057;-68
2022/05/28 08:50:49;;;;;;;9.40;1.98;;;15.30;99.90;;;;;;5033998;28;20049;-68
2022/05/28 08:53:21;;;;;;;7.57;1.90;;;15.10;99.90;;;;;;5051590;28;20048;-68
2022/05/28 08:55:50;;;;;;;9.45;1.83;;;15.40;99.90;;;;;;5051315;28;20088;-69
2022/05/28 08:58:23;;;;;;;9.35;1.77;;;15.60;99.90;;;;;;5034767;28;20515;-69
2022/05/28 09:00:59;;;;;;;12.35;2.25;;;15.80;99.90;;;;;;5049719;28;20045;-70
2022/05/28 09:03:39;;;;;;;9.55;2.08;;;16.00;99.90;;;;;;5055960;28;20134;-72
2022/05/28 09:06:11;;;;;;;10.82;1.70;;;16.10;99.90;;;;;;5050991;28;20045;-69
2022/05/28 09:08:46;;;;;;;13.13;2.05;;;16.00;99.90;;;;;;5032535;28;20168;-73
2022/05/28 09:11:38;;;;;;;7.72;1.63;;;15.30;99.90;;;;;;5040292;28;20143;-70
2022/05/28 09:14:30;;;;;;;6.97;1.70;;;15.40;99.90;;;;;;5081711;28;20428;-67
2022/05/28 09:17:17;;;;;;;11.63;1.77;;;15.50;99.90;;;;;;5060102;28;20060;-68
2022/05/28 09:19:45;;;;;;;8.07;1.38;;;15.60;99.90;;;;;;5051040;28;20052;-68
2022/05/28 09:22:11;;;;;;;5.65;1.35;;;15.60;99.90;;;;;;5017846;28;20081;-69
2022/05/28 09:24:40;;;;;;;5.85;1.30;;;15.40;99.90;;;;;;5050722;28;20052;-68
2022/05/28 09:27:29;;;;;;;8.50;1.42;;;15.40;99.90;;;;;;5050848;28;20041;-69
2022/05/28 09:30:14;;;;;;;7.40;1.45;;;15.60;99.90;;;;;;5058691;28;20053;-68
2022/05/28 09:32:59;;;;;;;8.75;1.88;;;15.40;99.90;;;;;;5079757;28;20048;-71
2022/05/28 09:35:56;;;;;;;7.93;1.63;;;15.60;99.90;;;;;;5068781;28;20072;-68
2022/05/28 09:38:53;;;;;;;9.60;1.55;;;16.30;99.90;;;;;;5050739;28;20052;-70
2022/05/28 09:41:47;;;;;;;12.98;1.80;;;16.20;99.90;;;;;;5050660;28;20057;-67
2022/05/28 09:44:26;;;;;;;8.38;1.98;;;15.90;99.90;;;;;;5042290;28;20490;-67
2022/05/28 09:46:52;;;;;;;6.35;1.90;;;16.20;99.90;;;;;;5061650;28;20036;-68
2022/05/28 09:49:24;;;;;;;10.93;1.83;;;16.70;99.90;;;;;;5056303;28;20039;-68
2022/05/28 09:51:58;;;;;;;11.98;1.50;;;16.30;99.90;;;;;;5071529;28;20071;-70
2022/05/28 09:54:30;;;;;;;8.75;1.95;;;15.60;99.90;;;;;;5053207;28;20052;-69
2022/05/28 09:57:00;;;;;;;9.98;1.60;;;15.30;99.90;;;;;;5058235;28;20041;-69
2022/05/28 09:59:32;;;;;;;11.13;1.95;;;15.40;99.90;;;;;;5050317;28;20124;-69
2022/05/28 10:02:10;;;;;;;9.68;1.98;;;15.80;99.90;;;;;;5051050;28;20578;-67
2022/05/28 10:04:55;;;;;;;9.57;1.70;;;16.20;99.90;;;;;;5033540;28;20049;-68
2022/05/28 10:07:41;;;;;;;8.75;1.63;;;16.00;99.90;;;;;;5049845;28;20044;-69
2022/05/28 10:10:26;;;;;;;9.57;1.63;;;16.00;99.90;;;;;;5059201;28;20473;-68
2022/05/28 10:13:04;;;;;;;7.45;1.40;;;15.80;99.90;;;;;;5055341;28;20036;-69
2022/05/28 10:15:38;;;;;;;9.45;1.90;;;15.70;99.90;;;;;;5049791;28;20049;-68
2022/05/28 10:18:16;;;;;;;8.65;1.52;;;15.80;99.90;;;;;;5053285;28;20057;-68
2022/05/28 10:20:43;;;;;;;10.68;1.55;;;15.60;99.90;;;;;;5040685;28;20139;-69
2022/05/28 10:23:15;;;;;;;7.50;1.27;;;15.50;99.90;;;;;;5041463;28;20053;-68
2022/05/28 10:25:48;;;;;;;5.60;1.50;;;15.80;99.90;;;;;;5050330;28;20049;-68
2022/05/28 10:28:31;;;;;;;7.53;1.58;;;16.30;99.90;;;;;;5050205;28;20139;-68
2022/05/28 10:30:58;;;;;;;8.38;1.70;;;16.40;99.90;;;;;;5050060;28;20072;-69
2022/05/28 10:33:29;;;;;;;6.53;1.58;;;16.30;99.90;;;;;;5039412;28;20415;-68
2022/05/28 10:36:06;;;;;;;8.98;1.70;;;16.00;99.90;;;;;;5064555;28;20056;-68
2022/05/28 10:38:33;;;;;;;7.55;1.52;;;16.10;99.90;;;;;;5064132;28;20048;-68
2022/05/28 10:41:01;;;;;;;9.32;1.38;;;16.40;99.90;;;;;;5062822;28;20036;-68
2022/05/28 10:43:27;;;;;;;6.78;1.45;;;16.40;99.90;;;;;;5046765;28;20090;-70
2022/05/28 10:46:14;;;;;;;5.22;1.20;;;17.00;99.90;;;;;;5087285;28;20067;-68
2022/05/28 10:48:43;;;;;;;10.85;1.40;;;16.30;90.70;;;;;;5061083;28;21117;-69
2022/05/28 10:51:32;;;;;;;6.00;1.40;;;16.40;99.90;;;;;;5066594;28;20049;-68
2022/05/28 10:54:03;;;;;;;5.90;1.20;;;17.00;99.90;;;;;;5058302;28;20402;-69
2022/05/28 10:56:52;;;;;;;10.38;1.45;;;17.30;96.50;;;;;;5084221;28;20040;-71
2022/05/28 11:00:03;;;;;;;6.65;1.30;;;17.20;82.80;;;;;;5057315;28;20040;-68
2022/05/28 11:02:44;;;;;;;5.57;1.50;;;17.40;90.80;;;;;;5070540;28;20464;-71
2022/05/28 11:05:38;;;;;;;8.77;1.60;;;17.40;98.90;;;;;;5070614;28;20220;-68
2022/05/28 11:08:20;;;;;;;9.23;1.63;;;17.30;96.20;;;;;;5087302;28;20059;-69
2022/05/28 11:10:55;;;;;;;7.85;1.60;;;16.50;99.90;;;;;;5060768;28;20051;-68
2022/05/28 11:13:39;;;;;;;8.32;1.50;;;16.20;99.90;;;;;;5044840;28;20102;-68
2022/05/28 11:16:17;;;;;;;8.00;1.77;;;16.10;99.90;;;;;;5040768;28;20082;-69
2022/05/28 11:19:04;;;;;;;9.90;1.60;;;15.60;99.90;;;;;;5058665;28;20087;-69
2022/05/28 11:21:45;;;;;;;8.63;1.50;;;16.30;97.00;;;;;;5060222;28;20048;-70
2022/05/28 11:25:01;;;;;;;6.55;1.45;;;16.40;99.90;;;;;;5076879;28;20040;-69
2022/05/28 11:27:38;;;;;;;8.48;1.92;;;16.30;97.50;;;;;;4978600;28;20420;-68
2022/05/28 11:30:14;;;;;;;8.60;1.83;;;15.90;99.90;;;;;;4992870;28;20129;-68
2022/05/28 11:32:42;;;;;;;8.88;1.60;;;15.60;99.90;;;;;;5034262;28;20053;-68
2022/05/28 11:35:42;;;;;;;10.52;1.83;;;15.60;99.90;;;;;;5054256;28;20044;-68
2022/05/28 11:38:26;;;;;;;8.98;1.50;;;15.60;99.90;;;;;;5073941;28;20044;-67
2022/05/28 11:41:15;;;;;;;11.48;1.60;;;15.90;99.90;;;;;;5072182;28;20123;-68
2022/05/28 11:43:50;;;;;;;14.63;2.38;;;16.30;99.90;;;;;;5083191;28;20517;-67
2022/05/28 11:46:20;;;;;;;6.82;1.65;;;16.80;99.90;;;;;;5053940;28;20109;-67
2022/05/28 11:51:43;;;;;;;7.03;1.63;;;16.30;99.90;;;;;;5062388;28;20075;-67
2022/05/28 11:54:25;;;;;;;7.25;1.85;;;15.90;99.90;;;;;;5040152;28;20086;-68
2022/05/28 11:56:58;;;;;;;8.30;1.65;;;16.40;99.90;;;;;;5060455;28;20412;-67
2022/05/28 11:59:27;;;;;;;7.25;1.55;;;16.40;98.30;;;;;;5054517;28;20040;-66
2022/05/28 12:01:58;;;;;;;4.95;1.30;;;16.40;95.20;;;;;;5058423;28;20077;-67
2022/05/28 12:04:23;;;;;;;5.10;1.33;;;16.80;80.30;;;;;;5072268;28;20053;-67
2022/05/28 12:07:02;;;;;;;10.15;1.60;;;17.30;99.90;;;;;;5052842;28;20049;-67
2022/05/28 12:09:32;;;;;;;6.15;1.40;;;17.80;93.70;;;;;;5052785;28;20049;-67
2022/05/28 12:12:17;;;;;;;8.23;1.77;;;18.00;90.40;;;;;;5035455;28;20185;-68
2022/05/28 12:14:47;;;;;;;6.85;1.40;;;18.00;69.80;;;;;;5050099;28;20124;-67
2022/05/28 12:17:19;;;;;;;5.68;1.73;;;17.80;91.00;;;;;;5062272;28;20074;-67
2022/05/28 12:19:58;;;;;;;9.27;1.90;;;17.10;85.40;;;;;;5038397;28;20051;-67
2022/05/28 12:22:24;;;;;;;8.43;1.55;;;16.80;92.20;;;;;;5046666;28;20060;-68
2022/05/28 12:25:03;;;;;;;9.82;1.73;;;16.30;99.90;;;;;;5052266;28;20060;-69
2022/05/28 12:27:40;;;;;;;5.88;1.58;;;15.90;99.90;;;;;;5048314;28;20094;-67
2022/05/28 12:30:10;;;;;;;7.70;1.70;;;15.60;99.90;;;;;;5047818;28;20462;-68
2022/05/28 12:32:45;;;;;;;6.38;1.70;;;15.50;99.90;;;;;;5051938;28;20166;-68
2022/05/28 12:35:14;;;;;;;5.93;1.52;;;15.80;99.90;;;;;;5049543;28;20484;-68
2022/05/28 12:37:48;;;;;;;10.10;2.13;;;16.10;99.90;;;;;;5058206;28;20052;-68
2022/05/28 12:40:37;;;;;;;8.45;1.90;;;16.20;99.90;;;;;;5055763;28;20466;-67
2022/05/28 12:43:15;;;;;;;6.38;1.63;;;16.20;99.90;;;;;;5049006;28;20260;-67
2022/05/28 12:45:46;;;;;;;11.02;2.78;;;16.20;99.90;;;;;;5055690;28;20079;-70
2022/05/28 12:48:21;;;;;;;12.02;2.58;;;15.90;99.90;;;;;;5056640;28;20504;-71
2022/05/28 12:51:20;;;;;;;11.95;2.50;;;15.80;99.90;;;;;;5069012;28;20053;-70
2022/05/28 12:53:59;;;;;;;10.80;2.20;;;15.40;99.90;;;;;;5075503;28;20067;-71
2022/05/28 12:56:42;;;;;;;9.95;1.60;;;15.30;99.90;;;;;;5081499;28;20045;-68
2022/05/28 12:59:39;;;;;;;10.48;1.90;;;15.10;99.90;;;;;;5054011;28;21684;-71
2022/05/28 13:02:18;;;;;;;11.32;1.92;;;15.10;99.90;;;;;;5010623;28;20106;-69
2022/05/28 13:05:22;;;;;;;7.55;1.80;;;15.80;99.90;;;;;;5036153;28;20084;-75
2022/05/28 13:08:04;;;;;;;9.10;1.98;;;16.70;99.90;;;;;;5032569;28;20056;-75
2022/05/28 13:10:30;;;;;;;10.77;2.17;;;16.90;99.90;;;;;;5079717;28;20390;-74